createdAt,value
2019-02-22T00:01:54.359Z,26.00
2019-02-22T00:04:25.149Z,26.50
2019-02-22T00:06:56.556Z,27.20
2019-02-22T00:09:27.344Z,26.30
2019-02-22T00:11:58.379Z,26.53
2019-02-22T00:14:29.430Z,26.07
2019-02-22T00:17:00.306Z,25.80
2019-02-22T00:19:31.101Z,26.10
2019-02-22T00:22:01.917Z,26.03
2019-02-22T00:24:33.186Z,25.83
2019-02-22T00:27:04.271Z,24.83
2019-02-22T00:29:35.356Z,26.50
2019-02-22T00:32:06.471Z,25.33
2019-02-22T00:34:37.555Z,26.37
2019-02-22T00:37:08.559Z,26.90
2019-02-22T00:39:39.512Z,26.20
2019-02-22T00:42:10.900Z,27.43
2019-02-22T00:44:42.226Z,26.57
2019-02-22T00:47:13.074Z,26.37
2019-02-22T00:49:43.864Z,26.53
2019-02-22T00:52:14.983Z,26.40
2019-02-22T00:54:45.767Z,27.20
2019-02-22T00:57:16.771Z,27.70
2019-02-22T00:59:47.569Z,26.23
2019-02-22T01:02:18.465Z,26.60
2019-02-22T01:04:49.372Z,25.83
2019-02-22T01:07:20.187Z,26.20
2019-02-22T01:09:51.218Z,25.80
2019-02-22T01:12:22.459Z,25.50
2019-02-22T01:14:53.530Z,26.13
2019-02-22T01:17:24.656Z,26.60
2019-02-22T01:19:55.453Z,26.13
2019-02-22T01:22:30.339Z,26.10
2019-02-22T01:25:01.325Z,25.70
2019-02-22T01:27:32.301Z,26.07
2019-02-22T01:30:03.272Z,26.73
2019-02-22T01:32:34.114Z,27.30
2019-02-22T01:35:05.594Z,27.40
2019-02-22T01:37:36.363Z,27.23
2019-02-22T01:40:07.376Z,27.03
2019-02-22T01:42:38.222Z,26.93
2019-02-22T01:45:09.075Z,28.53
2019-02-22T01:47:39.832Z,27.70
2019-02-22T01:50:10.814Z,27.30
2019-02-22T01:52:41.819Z,27.90
2019-02-22T01:55:12.823Z,28.23
2019-02-22T01:57:43.592Z,28.93
2019-02-22T02:00:14.657Z,29.03
2019-02-22T02:02:45.589Z,28.70
2019-02-22T02:05:16.631Z,27.83
2019-02-22T02:07:47.619Z,26.73
2019-02-22T02:10:18.946Z,27.17
2019-02-22T02:12:50.069Z,28.97
2019-02-22T02:15:21.065Z,27.57
2019-02-22T02:17:51.831Z,28.30
2019-02-22T02:20:22.784Z,28.27
2019-02-22T02:22:53.577Z,27.73
2019-02-22T02:25:24.391Z,28.40
2019-02-22T02:27:56.416Z,26.60
2019-02-22T02:30:28.383Z,27.60
2019-02-22T02:32:59.613Z,27.17
2019-02-22T02:35:30.366Z,27.60
2019-02-22T02:38:01.428Z,27.17
2019-02-22T02:40:32.404Z,27.43
2019-02-22T02:43:03.568Z,27.80
2019-02-22T02:45:34.255Z,26.73
2019-02-22T02:48:05.320Z,27.23
2019-02-22T02:50:36.309Z,26.93
2019-02-22T02:53:07.308Z,26.93
2019-02-22T02:55:38.600Z,27.47
2019-02-22T02:58:09.601Z,27.40
2019-02-22T03:00:40.639Z,27.67
2019-02-22T03:03:11.397Z,27.93
2019-02-22T03:05:49.318Z,28.20
2019-02-22T03:08:20.828Z,27.37
2019-02-22T03:10:51.704Z,27.33
2019-02-22T03:13:22.908Z,29.60
2019-02-22T03:15:54.174Z,26.50
2019-02-22T03:18:25.130Z,27.87
2019-02-22T03:20:56.378Z,27.33
2019-02-22T03:23:27.628Z,27.90
2019-02-22T03:25:58.882Z,26.70
2019-02-22T03:28:30.234Z,28.67
2019-02-22T03:31:01.042Z,29.43
2019-02-22T03:33:32.765Z,29.03
2019-02-22T03:36:04.874Z,28.87
2019-02-22T03:38:35.936Z,27.40
2019-02-22T03:41:07.265Z,28.43
2019-02-22T03:43:38.260Z,28.50
2019-02-22T03:46:09.284Z,27.33
2019-02-22T03:48:41.359Z,28.60
2019-02-22T03:51:13.881Z,29.33
2019-02-22T03:53:48.712Z,30.73
2019-02-22T03:56:19.839Z,29.20
2019-02-22T03:58:50.711Z,30.13
2019-02-22T04:01:21.602Z,30.57
2019-02-22T04:03:52.683Z,32.60
2019-02-22T04:06:23.435Z,32.30
2019-02-22T04:08:54.217Z,33.17
2019-02-22T04:11:25.041Z,32.43
2019-02-22T04:13:56.022Z,32.73
2019-02-22T04:16:27.446Z,34.40
2019-02-22T04:18:58.207Z,32.60
2019-02-22T04:21:29.230Z,33.43
2019-02-22T04:24:00.406Z,32.63
2019-02-22T04:26:31.399Z,32.53
2019-02-22T04:29:02.447Z,32.83
2019-02-22T04:31:33.178Z,33.57
2019-02-22T04:34:04.059Z,32.70
2019-02-22T04:36:34.819Z,31.87
2019-02-22T04:39:06.556Z,32.17
2019-02-22T04:41:37.641Z,31.90
2019-02-22T04:44:08.428Z,32.47
2019-02-22T04:46:39.655Z,32.10
2019-02-22T04:49:10.722Z,32.50
2019-02-22T04:51:41.464Z,32.63
2019-02-22T04:54:12.241Z,32.43
2019-02-22T04:56:42.980Z,32.40
2019-02-22T04:59:13.749Z,33.30
2019-02-22T05:01:44.509Z,32.60
2019-02-22T05:04:15.479Z,33.90
2019-02-22T05:06:46.311Z,34.30
2019-02-22T05:09:18.088Z,33.63
2019-02-22T05:11:49.416Z,33.53
2019-02-22T05:14:20.418Z,34.37
2019-02-22T05:16:51.231Z,34.13
2019-02-22T05:19:22.321Z,34.07
2019-02-22T05:21:53.070Z,35.00
2019-02-22T05:24:23.826Z,35.00
2019-02-22T05:26:54.671Z,36.00
2019-02-22T05:29:25.813Z,35.47
2019-02-22T05:31:56.677Z,36.50
2019-02-22T05:34:27.594Z,35.47
2019-02-22T05:36:58.585Z,36.67
2019-02-22T05:39:29.811Z,36.67
2019-02-22T05:42:00.925Z,35.83
2019-02-22T05:44:32.642Z,36.50
2019-02-22T05:47:03.751Z,35.97
2019-02-22T05:49:34.634Z,36.10
2019-02-22T05:52:05.619Z,37.63
2019-02-22T05:54:36.691Z,35.93
2019-02-22T05:57:07.679Z,37.90
2019-02-22T05:59:38.645Z,38.57
2019-02-22T06:02:09.649Z,38.07
2019-02-22T06:04:40.614Z,38.53
2019-02-22T06:07:14.355Z,37.43
2019-02-22T06:09:45.352Z,39.07
2019-02-22T06:12:18.460Z,37.50
2019-02-22T06:14:48.775Z,36.50
2019-02-22T06:17:19.771Z,36.07
2019-02-22T06:19:50.551Z,36.07
2019-02-22T06:22:29.562Z,38.70
2019-02-22T06:24:53.802Z,38.10
2019-02-22T06:27:24.921Z,36.83
2019-02-22T06:29:55.679Z,36.87
2019-02-22T06:32:27.049Z,40.57
2019-02-22T06:34:58.327Z,38.53
2019-02-22T06:37:29.149Z,38.07
2019-02-22T06:40:00.416Z,39.00
2019-02-22T06:42:31.379Z,38.70
2019-02-22T06:45:02.133Z,41.10
2019-02-22T06:47:33.359Z,40.57
2019-02-22T06:50:04.637Z,40.93
2019-02-22T06:52:35.557Z,40.33
2019-02-22T06:55:06.731Z,40.17
2019-02-22T06:57:37.489Z,38.90
2019-02-22T07:00:09.551Z,38.30
2019-02-22T07:02:41.157Z,38.77
2019-02-22T07:05:11.990Z,38.50
2019-02-22T07:07:44.027Z,40.30
2019-02-22T07:10:15.065Z,38.53
2019-02-22T07:12:59.145Z,39.03
2019-02-22T07:15:30.197Z,39.30
2019-02-22T07:18:01.845Z,40.73
2019-02-22T07:20:33.068Z,39.90
2019-02-22T07:23:03.843Z,39.83
2019-02-22T07:25:34.867Z,38.60
2019-02-22T07:28:06.170Z,39.10
2019-02-22T07:30:37.487Z,37.17
2019-02-22T07:33:08.777Z,36.37
2019-02-22T07:35:39.536Z,37.83
2019-02-22T07:38:10.564Z,37.10
2019-02-22T07:40:41.320Z,40.20
2019-02-22T07:43:12.440Z,37.50
2019-02-22T07:45:43.565Z,39.87
2019-02-22T07:48:15.919Z,40.77
2019-02-22T07:50:56.840Z,39.13
2019-02-22T07:53:19.248Z,39.67
2019-02-22T07:55:50.008Z,40.20
2019-02-22T07:58:21.358Z,40.30
2019-02-22T08:00:52.196Z,39.90
2019-02-22T08:03:23.262Z,38.47
2019-02-22T08:05:54.131Z,39.30
2019-02-22T08:08:24.983Z,39.87
2019-02-22T08:10:55.976Z,38.33
2019-02-22T08:13:26.978Z,39.00
2019-02-22T08:15:57.757Z,37.90
2019-02-22T08:18:29.010Z,38.97
2019-02-22T08:20:59.811Z,43.43
2019-02-22T08:23:30.956Z,42.20
2019-02-22T08:26:01.782Z,40.93
2019-02-22T08:28:32.567Z,41.00
2019-02-22T08:31:03.593Z,40.10
2019-02-22T08:33:34.550Z,41.30
2019-02-22T08:36:05.304Z,40.33
2019-02-22T08:38:36.322Z,41.60
2019-02-22T08:41:07.346Z,39.50
2019-02-22T08:43:38.371Z,40.77
2019-02-22T08:46:09.329Z,41.23
2019-02-22T08:48:40.451Z,40.73
2019-02-22T08:51:11.443Z,41.33
2019-02-22T08:53:42.226Z,41.17
2019-02-22T08:56:13.890Z,41.23
2019-02-22T08:58:44.678Z,40.77
2019-02-22T09:01:15.873Z,40.73
2019-02-22T09:03:50.235Z,41.67
2019-02-22T09:06:19.903Z,40.83
2019-02-22T09:08:51.319Z,40.80
2019-02-22T09:11:22.708Z,39.37
2019-02-22T09:13:53.623Z,39.60
2019-02-22T09:16:24.955Z,39.50
2019-02-22T09:18:56.098Z,39.40
2019-02-22T09:21:26.929Z,38.90
2019-02-22T09:23:57.938Z,38.10
2019-02-22T09:26:28.919Z,38.10
2019-02-22T09:29:00.081Z,38.07
2019-02-22T09:31:31.152Z,34.67
2019-02-22T09:34:02.624Z,33.40
2019-02-22T09:36:33.624Z,33.67
2019-02-22T09:39:05.845Z,32.03
2019-02-22T09:41:38.083Z,33.20
2019-02-22T09:44:09.785Z,33.60
2019-02-22T09:46:41.189Z,32.90
2019-02-22T09:49:12.193Z,32.07
2019-02-22T09:51:43.002Z,33.03
2019-02-22T09:54:14.416Z,34.03
2019-02-22T09:56:45.490Z,34.33
2019-02-22T09:59:16.601Z,32.50
2019-02-22T10:01:48.154Z,33.47
2019-02-22T10:04:18.952Z,33.53
2019-02-22T10:06:50.061Z,33.37
2019-02-22T10:09:21.134Z,32.73
2019-02-22T10:11:52.379Z,32.07
2019-02-22T10:14:23.613Z,33.30
2019-02-22T10:16:54.918Z,31.07
2019-02-22T10:19:26.206Z,31.07
2019-02-22T10:21:57.713Z,30.50
2019-02-22T10:24:28.968Z,30.73
2019-02-22T10:27:00.011Z,29.60
2019-02-22T10:29:30.801Z,27.93
2019-02-22T10:32:01.574Z,26.53
2019-02-22T10:34:32.915Z,25.10
2019-02-22T10:37:03.685Z,23.47
2019-02-22T10:39:34.705Z,23.60
2019-02-22T10:42:05.817Z,13.83
2019-02-22T10:44:36.920Z,14.50
2019-02-22T10:47:07.942Z,7.10
2019-02-22T10:49:38.713Z,6.60
2019-02-22T10:52:09.778Z,6.57
2019-02-22T10:54:40.846Z,6.47
2019-02-22T10:57:11.585Z,6.40
2019-02-22T10:59:42.570Z,7.00
2019-02-22T11:02:13.325Z,6.43
2019-02-22T11:04:44.411Z,7.03
2019-02-22T11:07:15.193Z,6.80
2019-02-22T11:09:46.189Z,6.17
2019-02-22T11:12:16.949Z,6.37
2019-02-22T11:14:48.063Z,6.13
2019-02-22T11:17:18.853Z,7.27
2019-02-22T11:19:49.838Z,6.17
2019-02-22T11:22:20.811Z,6.00
2019-02-22T11:24:51.852Z,6.13
2019-02-22T11:27:22.664Z,6.73
2019-02-22T11:29:53.420Z,7.00
2019-02-22T11:32:24.155Z,7.00
2019-02-22T11:34:55.002Z,6.77
2019-02-22T11:37:25.811Z,5.97
2019-02-22T11:39:56.565Z,5.93
2019-02-22T11:42:27.525Z,6.23
2019-02-22T11:44:58.318Z,5.17
2019-02-22T11:47:29.381Z,5.13
2019-02-22T11:50:00.555Z,5.30
2019-02-22T11:52:31.839Z,5.50
2019-02-22T11:55:02.688Z,5.43
2019-02-22T11:57:35.040Z,5.73
2019-02-22T12:00:08.800Z,5.30
2019-02-22T12:02:40.661Z,5.57
2019-02-22T12:05:11.778Z,5.20
2019-02-22T12:07:43.160Z,5.10
2019-02-22T12:10:14.589Z,5.03
2019-02-22T12:12:45.617Z,4.87
2019-02-22T12:15:16.755Z,4.57
2019-02-22T12:17:47.514Z,4.53
2019-02-22T12:20:18.274Z,5.03
2019-02-22T12:22:49.419Z,4.40
2019-02-22T12:25:20.184Z,4.33
2019-02-22T12:27:50.933Z,4.57
2019-02-22T12:30:22.105Z,4.83
2019-02-22T12:32:53.044Z,4.33
2019-02-22T12:35:23.790Z,5.03
2019-02-22T12:37:54.536Z,5.17
2019-02-22T12:40:25.590Z,5.57
2019-02-22T12:42:57.637Z,5.50
2019-02-22T12:45:28.882Z,5.73
2019-02-22T12:47:59.699Z,6.20
2019-02-22T12:50:30.662Z,5.47
2019-02-22T12:53:01.703Z,6.00
2019-02-22T12:55:32.458Z,5.70
2019-02-22T12:58:03.424Z,5.63
2019-02-22T13:00:34.338Z,6.03
2019-02-22T13:03:05.937Z,6.03
2019-02-22T13:05:36.690Z,5.90
2019-02-22T13:08:07.433Z,5.53
2019-02-22T13:10:38.417Z,5.77
2019-02-22T13:13:09.156Z,5.90
2019-02-22T13:15:39.925Z,5.90
2019-02-22T13:18:10.739Z,5.67
2019-02-22T13:20:41.761Z,5.77
2019-02-22T13:23:12.860Z,6.53
2019-02-22T13:25:43.994Z,5.93
2019-02-22T13:28:14.833Z,5.60
2019-02-22T13:30:45.604Z,7.30
2019-02-22T13:33:16.962Z,8.67
2019-02-22T13:35:47.755Z,6.60
2019-02-22T13:38:18.797Z,6.23
2019-02-22T13:40:49.989Z,5.47
2019-02-22T13:43:20.749Z,6.03
2019-02-22T13:45:51.797Z,5.93
2019-02-22T13:48:22.742Z,5.93
2019-02-22T13:50:53.795Z,6.00
2019-02-22T13:53:24.838Z,6.10
2019-02-22T13:55:55.606Z,5.40
2019-02-22T13:58:26.336Z,5.77
2019-02-22T14:00:57.324Z,5.50
2019-02-22T14:03:28.075Z,5.87
2019-02-22T14:05:58.890Z,6.20
2019-02-22T14:08:30.595Z,5.50
2019-02-22T14:11:01.577Z,5.67
2019-02-22T14:13:33.347Z,6.17
2019-02-22T14:16:04.138Z,5.80
2019-02-22T14:18:34.962Z,5.97
2019-02-22T14:21:05.958Z,5.50
2019-02-22T14:23:36.720Z,5.97
2019-02-22T14:26:07.477Z,5.73
2019-02-22T14:28:38.715Z,6.63
2019-02-22T14:31:09.576Z,6.77
2019-02-22T14:33:40.754Z,6.60
2019-02-22T14:36:11.669Z,6.53
2019-02-22T14:38:42.456Z,6.33
2019-02-22T14:41:13.297Z,5.90
2019-02-22T14:43:44.340Z,6.97
2019-02-22T14:46:25.374Z,6.60
2019-02-22T14:48:47.568Z,6.47
2019-02-22T14:51:18.496Z,6.50
2019-02-22T14:53:49.216Z,6.50
2019-02-22T14:56:20.073Z,6.37
2019-02-22T14:58:51.431Z,6.77
2019-02-22T15:01:22.194Z,6.03
2019-02-22T15:03:52.931Z,6.13
2019-02-22T15:06:24.032Z,6.70
2019-02-22T15:08:55.782Z,6.10
2019-02-22T15:11:26.580Z,5.70
2019-02-22T15:13:57.405Z,5.80
2019-02-22T15:16:46.146Z,6.30
2019-02-22T15:19:17.981Z,5.50
2019-02-22T15:21:49.026Z,5.93
2019-02-22T15:24:19.822Z,5.83
2019-02-22T15:26:50.983Z,4.87
2019-02-22T15:29:21.769Z,5.50
2019-02-22T15:31:52.525Z,5.43
2019-02-22T15:34:23.726Z,5.90
2019-02-22T15:36:54.539Z,5.60
2019-02-22T15:39:25.608Z,5.73
2019-02-22T15:41:56.430Z,6.40
2019-02-22T15:44:27.232Z,6.00
2019-02-22T15:46:59.253Z,6.43
2019-02-22T15:49:30.199Z,5.90
2019-02-22T15:52:00.970Z,6.40
2019-02-22T15:54:32.154Z,5.50
2019-02-22T15:57:02.906Z,6.50
2019-02-22T15:59:33.685Z,6.00
2019-02-22T16:02:04.754Z,6.13
2019-02-22T16:04:48.439Z,8.10
2019-02-22T16:07:19.553Z,9.40
2019-02-22T16:09:50.807Z,7.33
2019-02-22T16:12:22.961Z,7.20
2019-02-22T16:14:54.010Z,6.90
2019-02-22T16:17:24.751Z,6.90
2019-02-22T16:19:55.922Z,6.70
2019-02-22T16:22:26.772Z,6.10
2019-02-22T16:24:58.058Z,6.33
2019-02-22T16:27:28.868Z,6.73
2019-02-22T16:30:00.335Z,5.87
2019-02-22T16:32:32.546Z,5.87
2019-02-22T16:35:03.535Z,5.53
2019-02-22T16:37:34.729Z,6.13
2019-02-22T16:40:07.086Z,6.23
2019-02-22T16:42:38.099Z,5.70
2019-02-22T16:45:09.613Z,5.80
2019-02-22T16:47:40.836Z,6.30
2019-02-22T16:50:11.822Z,5.47
2019-02-22T16:52:45.143Z,5.73
2019-02-22T16:55:15.683Z,5.50
2019-02-22T16:57:46.537Z,6.10
2019-02-22T17:00:17.615Z,6.13
2019-02-22T17:02:48.355Z,6.60
2019-02-22T17:05:19.125Z,6.33
2019-02-22T17:07:50.092Z,5.80
2019-02-22T17:10:21.148Z,6.03
2019-02-22T17:12:52.184Z,7.13
2019-02-22T17:15:22.959Z,6.70
2019-02-22T17:17:53.693Z,7.13
2019-02-22T17:20:24.776Z,7.07
2019-02-22T17:22:55.513Z,6.87
2019-02-22T17:25:26.921Z,6.73
2019-02-22T17:27:58.023Z,7.20
2019-02-22T17:30:29.371Z,6.87
2019-02-22T17:33:00.167Z,7.30
2019-02-22T17:35:31.117Z,7.53
2019-02-22T17:38:03.342Z,6.80
2019-02-22T17:40:34.463Z,7.57
2019-02-22T17:43:05.212Z,6.87
2019-02-22T17:45:36.192Z,7.13
2019-02-22T17:48:07.155Z,7.40
2019-02-22T17:50:38.714Z,6.70
2019-02-22T17:53:10.068Z,6.73
2019-02-22T17:55:41.585Z,7.27
2019-02-22T17:58:23.765Z,7.13
2019-02-22T18:00:45.365Z,6.70
2019-02-22T18:03:16.410Z,7.30
2019-02-22T18:05:47.445Z,7.70
2019-02-22T18:08:18.524Z,6.40
2019-02-22T18:10:49.605Z,6.87
2019-02-22T18:13:20.747Z,7.00
2019-02-22T18:15:51.707Z,6.63
2019-02-22T18:18:22.935Z,7.10
2019-02-22T18:20:53.992Z,6.97
2019-02-22T18:23:24.731Z,7.13
2019-02-22T18:25:55.710Z,6.60
2019-02-22T18:28:26.728Z,7.30
2019-02-22T18:30:58.072Z,6.87
2019-02-22T18:33:28.933Z,7.43
2019-02-22T18:36:00.018Z,6.90
2019-02-22T18:38:30.831Z,7.00
2019-02-22T18:41:02.377Z,6.67
2019-02-22T18:43:33.537Z,6.80
2019-02-22T18:46:04.591Z,6.73
2019-02-22T18:48:35.618Z,7.30
2019-02-22T18:51:06.606Z,6.70
2019-02-22T18:53:37.357Z,7.47
2019-02-22T18:56:08.385Z,6.57
2019-02-22T18:58:39.741Z,6.83
2019-02-22T19:01:10.877Z,7.00
2019-02-22T19:03:42.205Z,7.37
2019-02-22T19:06:14.252Z,7.10
2019-02-22T19:08:45.931Z,7.00
2019-02-22T19:11:17.160Z,7.10
2019-02-22T19:13:47.999Z,6.77
2019-02-22T19:16:18.756Z,7.50
2019-02-22T19:18:49.497Z,6.87
2019-02-22T19:21:20.316Z,6.63
2019-02-22T19:23:51.556Z,6.67
2019-02-22T19:26:23.535Z,6.63
2019-02-22T19:28:54.265Z,7.57
2019-02-22T19:31:25.260Z,6.73
2019-02-22T19:33:56.470Z,6.70
2019-02-22T19:36:27.218Z,7.07
2019-02-22T19:38:58.199Z,7.07
2019-02-22T19:41:29.066Z,6.47
2019-02-22T19:44:00.017Z,6.97
2019-02-22T19:46:30.992Z,6.10
2019-02-22T19:49:02.209Z,7.20
2019-02-22T19:51:32.975Z,7.20
2019-02-22T19:54:03.943Z,7.57
2019-02-22T19:56:34.974Z,7.30
2019-02-22T19:59:05.994Z,7.60
2019-02-22T20:01:37.012Z,7.13
2019-02-22T20:04:07.824Z,6.80
2019-02-22T20:06:39.795Z,7.20
2019-02-22T20:09:11.200Z,7.83
2019-02-22T20:11:42.766Z,7.33
2019-02-22T20:14:14.889Z,7.33
2019-02-22T20:16:46.067Z,7.73
2019-02-22T20:19:17.098Z,7.73
2019-02-22T20:21:48.121Z,8.17
2019-02-22T20:24:20.120Z,8.33
2019-02-22T20:26:50.880Z,7.03
2019-02-22T20:29:22.273Z,6.93
2019-02-22T20:31:53.320Z,7.00
2019-02-22T20:34:24.614Z,6.70
2019-02-22T20:36:56.270Z,6.83
2019-02-22T20:39:26.997Z,6.73
2019-02-22T20:41:58.101Z,6.63
2019-02-22T20:44:28.859Z,6.10
2019-02-22T20:46:59.831Z,7.00
2019-02-22T20:49:30.551Z,7.07
2019-02-22T20:52:01.305Z,6.80
2019-02-22T20:54:33.309Z,5.80
2019-02-22T20:57:04.353Z,5.93
2019-02-22T20:59:35.173Z,6.17
2019-02-22T21:02:06.542Z,6.17
2019-02-22T21:04:37.589Z,5.83
2019-02-22T21:07:08.336Z,5.77
2019-02-22T21:09:39.403Z,5.73
2019-02-22T21:12:10.496Z,5.93
2019-02-22T21:14:41.844Z,5.47
2019-02-22T21:17:12.843Z,6.13
2019-02-22T21:19:43.822Z,5.53
2019-02-22T21:22:14.807Z,5.77
2019-02-22T21:24:45.917Z,5.60
2019-02-22T21:27:17.167Z,5.80
2019-02-22T21:29:48.420Z,5.93
2019-02-22T21:32:19.443Z,5.53
2019-02-22T21:34:51.782Z,5.33
2019-02-22T21:37:22.855Z,5.03
2019-02-22T21:39:53.812Z,5.50
2019-02-22T21:42:24.564Z,4.73
2019-02-22T21:44:56.528Z,5.13
2019-02-22T21:47:27.522Z,4.70
2019-02-22T21:49:58.267Z,5.03
2019-02-22T21:52:29.254Z,5.27
2019-02-22T21:55:00.491Z,5.33
2019-02-22T21:57:31.569Z,5.50
2019-02-22T22:00:02.305Z,5.10
2019-02-22T22:02:33.419Z,5.30
2019-02-22T22:05:04.456Z,4.77
2019-02-22T22:07:35.439Z,5.60
2019-02-22T22:10:06.357Z,5.00
2019-02-22T22:12:37.177Z,5.60
2019-02-22T22:15:10.550Z,5.60
2019-02-22T22:17:42.394Z,5.27
2019-02-22T22:20:13.723Z,5.77
2019-02-22T22:22:44.581Z,6.30
2019-02-22T22:25:15.343Z,6.20
2019-02-22T22:27:46.089Z,6.00
2019-02-22T22:30:17.137Z,6.33
2019-02-22T22:32:48.505Z,5.83
2019-02-22T22:35:19.237Z,6.07
2019-02-22T22:37:50.351Z,5.57
2019-02-22T22:40:21.548Z,6.00
2019-02-22T22:42:52.834Z,5.90
2019-02-22T22:45:23.599Z,6.13
2019-02-22T22:47:54.408Z,6.50
2019-02-22T22:50:25.168Z,6.73
2019-02-22T22:52:55.927Z,6.90
2019-02-22T22:55:27.173Z,6.73
2019-02-22T22:57:58.160Z,6.80
2019-02-22T23:01:02.450Z,6.87
2019-02-22T23:03:34.137Z,6.63
2019-02-22T23:06:05.720Z,7.10
2019-02-22T23:08:36.479Z,8.00
2019-02-22T23:11:07.661Z,7.50
2019-02-22T23:13:38.681Z,7.40
2019-02-22T23:16:10.385Z,7.53
2019-02-22T23:18:41.524Z,7.50
2019-02-22T23:21:12.637Z,8.03
2019-02-22T23:23:43.453Z,7.47
2019-02-22T23:26:14.407Z,8.07
2019-02-22T23:28:45.474Z,8.17
2019-02-22T23:31:17.711Z,8.47
2019-02-22T23:33:48.709Z,8.60
2019-02-22T23:36:19.435Z,8.83
2019-02-22T23:38:50.540Z,8.60
2019-02-22T23:41:21.915Z,8.57
2019-02-22T23:43:52.941Z,8.50
2019-02-22T23:46:23.895Z,8.80
2019-02-22T23:48:54.867Z,8.67
2019-02-22T23:51:26.098Z,8.80
2019-02-22T23:53:57.057Z,9.43
2019-02-22T23:56:28.040Z,8.67
2019-02-22T23:58:58.779Z,9.23
